sensor_id;sensor_type;location;lat;lon;timestamp;pressure;altitude;pressure_sealevel;temperature;humidity
17873;BME280;36318;42.620;23.338;2023-04-01T00:02:21;92123.56;;;13.60;63.38
17873;BME280;36318;42.620;23.338;2023-04-01T00:04:47;92124.59;;;13.10;67.08
17873;BME280;36318;42.620;23.338;2023-04-01T00:07:14;92124.16;;;12.65;70.17
17873;BME280;36318;42.620;23.338;2023-04-01T00:09:42;92117.56;;;12.37;71.80
17873;BME280;36318;42.620;23.338;2023-04-01T00:12:08;92126.63;;;12.25;74.85
17873;BME280;36318;42.620;23.338;2023-04-01T00:14:35;92133.47;;;12.26;75.73
17873;BME280;36318;42.620;23.338;2023-04-01T00:17:02;92133.44;;;11.84;82.82
17873;BME280;36318;42.620;23.338;2023-04-01T00:19:29;92132.44;;;11.85;87.95
17873;BME280;36318;42.620;23.338;2023-04-01T00:21:57;92126.31;;;11.68;93.08
17873;BME280;36318;42.620;23.338;2023-04-01T00:24:23;92141.44;;;11.47;95.20
17873;BME280;36318;42.620;23.338;2023-04-01T00:26:51;92128.19;;;11.32;95.76
17873;BME280;36318;42.620;23.338;2023-04-01T00:29:18;92140.16;;;11.25;100.00
17873;BME280;36318;42.620;23.338;2023-04-01T00:31:44;92131.47;;;11.17;97.74
17873;BME280;36318;42.620;23.338;2023-04-01T00:34:11;92130.56;;;11.26;98.80
17873;BME280;36318;42.620;23.338;2023-04-01T00:36:38;92127.50;;;11.30;95.20
17873;BME280;36318;42.620;23.338;2023-04-01T00:39:05;92112.81;;;11.39;92.46
17873;BME280;36318;42.620;23.338;2023-04-01T00:41:31;92114.81;;;11.45;90.53
17873;BME280;36318;42.620;23.338;2023-04-01T00:44:19;92112.84;;;11.47;92.17
17873;BME280;36318;42.620;23.338;2023-04-01T00:46:46;92111.84;;;11.40;91.57
17873;BME280;36318;42.620;23.338;2023-04-01T00:49:13;92110.16;;;11.31;94.42
17873;BME280;36318;42.620;23.338;2023-04-01T00:51:40;92099.81;;;11.39;94.70
17873;BME280;36318;42.620;23.338;2023-04-01T00:54:07;92099.63;;;11.32;97.92
17873;BME280;36318;42.620;23.338;2023-04-01T00:56:36;92103.41;;;11.20;98.90
17873;BME280;36318;42.620;23.338;2023-04-01T00:59:05;92093.03;;;11.20;99.18
17873;BME280;36318;42.620;23.338;2023-04-01T01:01:34;92102.97;;;11.25;99.16
17873;BME280;36318;42.620;23.338;2023-04-01T01:04:01;92092.88;;;11.22;100.00
17873;BME280;36318;42.620;23.338;2023-04-01T01:06:32;92087.78;;;11.12;100.00
17873;BME280;36318;42.620;23.338;2023-04-01T01:09:06;92072.25;;;10.95;100.00
17873;BME280;36318;42.620;23.338;2023-04-01T01:11:37;92074.75;;;11.04;100.00
17873;BME280;36318;42.620;23.338;2023-04-01T01:14:07;92064.75;;;10.92;100.00
17873;BME280;36318;42.620;23.338;2023-04-01T01:16:41;92061.69;;;10.96;100.00
17873;BME280;36318;42.620;23.338;2023-04-01T01:19:10;92060.56;;;10.99;98.64
17873;BME280;36318;42.620;23.338;2023-04-01T01:21:45;92063.75;;;10.93;98.78
17873;BME280;36318;42.620;23.338;2023-04-01T01:27:03;92051.31;;;10.96;99.00
17873;BME280;36318;42.620;23.338;2023-04-01T01:29:41;92052.13;;;10.97;98.25
17873;BME280;36318;42.620;23.338;2023-04-01T01:32:11;92046.63;;;11.00;98.31
17873;BME280;36318;42.620;23.338;2023-04-01T01:34:45;92042.41;;;10.99;96.91
17873;BME280;36318;42.620;23.338;2023-04-01T01:37:18;92045.56;;;11.10;92.29
17873;BME280;36318;42.620;23.338;2023-04-01T01:39:48;92040.31;;;11.28;88.97
17873;BME280;36318;42.620;23.338;2023-04-01T01:42:16;92043.94;;;11.35;87.28
17873;BME280;36318;42.620;23.338;2023-04-01T01:44:44;92044.00;;;11.43;85.01
17873;BME280;36318;42.620;23.338;2023-04-01T01:47:12;92029.06;;;11.45;84.24
17873;BME280;36318;42.620;23.338;2023-04-01T01:49:40;92029.00;;;11.37;84.41
17873;BME280;36318;42.620;23.338;2023-04-01T01:52:08;92039.16;;;11.48;84.42
17873;BME280;36318;42.620;23.338;2023-04-01T01:54:36;92035.25;;;11.52;82.25
17873;BME280;36318;42.620;23.338;2023-04-01T01:57:04;92013.81;;;11.50;84.07
17873;BME280;36318;42.620;23.338;2023-04-01T01:59:32;92009.44;;;11.51;79.75
17873;BME280;36318;42.620;23.338;2023-04-01T02:02:01;92005.44;;;11.64;74.69
17873;BME280;36318;42.620;23.338;2023-04-01T02:04:32;92005.56;;;11.88;71.54
17873;BME280;36318;42.620;23.338;2023-04-01T02:07:01;92005.91;;;12.02;69.56
17873;BME280;36318;42.620;23.338;2023-04-01T02:09:28;91995.84;;;11.98;70.96
17873;BME280;36318;42.620;23.338;2023-04-01T02:11:57;91997.44;;;11.91;73.30
17873;BME280;36318;42.620;23.338;2023-04-01T02:14:26;92008.44;;;11.77;76.14
17873;BME280;36318;42.620;23.338;2023-04-01T02:16:55;92001.38;;;11.62;76.07
17873;BME280;36318;42.620;23.338;2023-04-01T02:19:23;91996.66;;;11.65;75.40
17873;BME280;36318;42.620;23.338;2023-04-01T02:21:53;91995.03;;;11.64;74.79
17873;BME280;36318;42.620;23.338;2023-04-01T02:24:21;92002.81;;;11.56;76.76
17873;BME280;36318;42.620;23.338;2023-04-01T02:26:49;91999.72;;;11.61;75.42
17873;BME280;36318;42.620;23.338;2023-04-01T02:29:19;91993.25;;;11.65;75.68
17873;BME280;36318;42.620;23.338;2023-04-01T02:31:47;91994.53;;;11.61;74.91
17873;BME280;36318;42.620;23.338;2023-04-01T02:34:14;91993.09;;;11.66;73.12
17873;BME280;36318;42.620;23.338;2023-04-01T02:36:41;91993.31;;;11.73;71.72
17873;BME280;36318;42.620;23.338;2023-04-01T02:39:08;91992.34;;;11.74;75.71
17873;BME280;36318;42.620;23.338;2023-04-01T02:41:38;91998.94;;;11.68;74.84
17873;BME280;36318;42.620;23.338;2023-04-01T02:44:05;91988.91;;;11.73;73.37
17873;BME280;36318;42.620;23.338;2023-04-01T02:46:33;91992.50;;;11.72;74.01
17873;BME280;36318;42.620;23.338;2023-04-01T02:49:00;92001.06;;;11.65;78.04
17873;BME280;36318;42.620;23.338;2023-04-01T02:51:27;92014.47;;;11.52;79.49
17873;BME280;36318;42.620;23.338;2023-04-01T02:53:53;92014.13;;;11.47;81.88
17873;BME280;36318;42.620;23.338;2023-04-01T02:56:20;92012.81;;;11.43;86.99
17873;BME280;36318;42.620;23.338;2023-04-01T02:58:46;92018.94;;;11.34;87.61
17873;BME280;36318;42.620;23.338;2023-04-01T03:01:13;92022.09;;;11.20;88.32
17873;BME280;36318;42.620;23.338;2023-04-01T03:03:41;92031.53;;;11.21;85.73
17873;BME280;36318;42.620;23.338;2023-04-01T03:06:08;92027.16;;;11.21;87.45
17873;BME280;36318;42.620;23.338;2023-04-01T03:08:35;92039.91;;;11.15;89.68
17873;BME280;36318;42.620;23.338;2023-04-01T03:11:01;92041.69;;;11.14;85.06
17873;BME280;36318;42.620;23.338;2023-04-01T03:13:28;92025.66;;;11.19;80.14
17873;BME280;36318;42.620;23.338;2023-04-01T03:15:54;92037.38;;;11.23;85.44
17873;BME280;36318;42.620;23.338;2023-04-01T03:18:21;92029.44;;;11.58;66.56
17873;BME280;36318;42.620;23.338;2023-04-01T03:20:49;92020.38;;;12.04;63.98
17873;BME280;36318;42.620;23.338;2023-04-01T03:23:15;92028.63;;;12.49;62.23
17873;BME280;36318;42.620;23.338;2023-04-01T03:25:44;92027.84;;;12.81;60.99
17873;BME280;36318;42.620;23.338;2023-04-01T03:28:11;92040.03;;;12.73;69.36
17873;BME280;36318;42.620;23.338;2023-04-01T03:30:38;92039.16;;;12.32;77.40
17873;BME280;36318;42.620;23.338;2023-04-01T03:33:04;92042.34;;;12.10;79.11
17873;BME280;36318;42.620;23.338;2023-04-01T03:35:31;92032.09;;;12.00;89.12
17873;BME280;36318;42.620;23.338;2023-04-01T03:37:59;92035.59;;;11.83;100.00
17873;BME280;36318;42.620;23.338;2023-04-01T03:40:26;92038.84;;;11.51;99.09
17873;BME280;36318;42.620;23.338;2023-04-01T03:42:52;92028.25;;;11.70;82.00
17873;BME280;36318;42.620;23.338;2023-04-01T03:45:19;92027.31;;;11.87;83.38
17873;BME280;36318;42.620;23.338;2023-04-01T03:47:46;92015.22;;;12.20;71.17
17873;BME280;36318;42.620;23.338;2023-04-01T03:50:12;92008.75;;;12.24;69.49
17873;BME280;36318;42.620;23.338;2023-04-01T03:52:39;92003.88;;;12.21;70.59
17873;BME280;36318;42.620;23.338;2023-04-01T03:55:07;91989.53;;;12.25;68.30
17873;BME280;36318;42.620;23.338;2023-04-01T03:57:34;91976.72;;;12.24;69.52
17873;BME280;36318;42.620;23.338;2023-04-01T04:00:03;91952.31;;;12.25;70.33
17873;BME280;36318;42.620;23.338;2023-04-01T04:02:30;91943.53;;;12.10;69.87
17873;BME280;36318;42.620;23.338;2023-04-01T04:04:57;91939.94;;;12.11;70.48
17873;BME280;36318;42.620;23.338;2023-04-01T04:07:23;91944.66;;;12.23;69.05
17873;BME280;36318;42.620;23.338;2023-04-01T04:09:50;91938.34;;;12.26;67.62
17873;BME280;36318;42.620;23.338;2023-04-01T04:12:18;91930.38;;;12.35;66.23
17873;BME280;36318;42.620;23.338;2023-04-01T04:14:44;91919.81;;;12.45;66.60
17873;BME280;36318;42.620;23.338;2023-04-01T04:17:11;91914.91;;;12.50;65.85
17873;BME280;36318;42.620;23.338;2023-04-01T04:19:41;91915.88;;;12.41;66.89
17873;BME280;36318;42.620;23.338;2023-04-01T04:22:08;91913.75;;;12.04;68.57
17873;BME280;36318;42.620;23.338;2023-04-01T04:24:34;91913.13;;;12.02;69.06
17873;BME280;36318;42.620;23.338;2023-04-01T04:27:01;91912.13;;;11.95;70.90
17873;BME280;36318;42.620;23.338;2023-04-01T04:29:29;91907.06;;;11.85;73.71
17873;BME280;36318;42.620;23.338;2023-04-01T04:31:56;91899.25;;;11.77;76.22
17873;BME280;36318;42.620;23.338;2023-04-01T04:34:22;91895.69;;;11.70;79.96
17873;BME280;36318;42.620;23.338;2023-04-01T04:36:49;91890.91;;;11.66;81.10
17873;BME280;36318;42.620;23.338;2023-04-01T04:39:15;91887.66;;;11.56;82.94
17873;BME280;36318;42.620;23.338;2023-04-01T04:41:42;91884.22;;;11.47;82.86
17873;BME280;36318;42.620;23.338;2023-04-01T04:44:09;91872.53;;;11.43;89.66
17873;BME280;36318;42.620;23.338;2023-04-01T04:46:36;91864.38;;;11.38;90.28
17873;BME280;36318;42.620;23.338;2023-04-01T04:49:04;91855.91;;;11.36;93.07
17873;BME280;36318;42.620;23.338;2023-04-01T04:51:31;91862.38;;;11.24;90.63
17873;BME280;36318;42.620;23.338;2023-04-01T04:53:59;91852.63;;;11.18;93.95
17873;BME280;36318;42.620;23.338;2023-04-01T04:56:25;91853.72;;;11.07;95.58
17873;BME280;36318;42.620;23.338;2023-04-01T04:58:52;91851.59;;;11.03;94.62
17873;BME280;36318;42.620;23.338;2023-04-01T05:01:18;91860.00;;;10.97;100.00
17873;BME280;36318;42.620;23.338;2023-04-01T05:03:46;91848.59;;;10.90;100.00
17873;BME280;36318;42.620;23.338;2023-04-01T05:06:13;91849.25;;;10.84;100.00
17873;BME280;36318;42.620;23.338;2023-04-01T05:08:41;91841.88;;;10.71;100.00
17873;BME280;36318;42.620;23.338;2023-04-01T05:11:09;91842.81;;;10.62;100.00
17873;BME280;36318;42.620;23.338;2023-04-01T05:13:36;91855.88;;;10.52;100.00
17873;BME280;36318;42.620;23.338;2023-04-01T05:16:02;91854.72;;;10.47;100.00
17873;BME280;36318;42.620;23.338;2023-04-01T05:18:29;91845.97;;;10.48;100.00
17873;BME280;36318;42.620;23.338;2023-04-01T05:20:57;91836.16;;;10.34;100.00
17873;BME280;36318;42.620;23.338;2023-04-01T05:23:24;91815.22;;;10.27;100.00
17873;BME280;36318;42.620;23.338;2023-04-01T05:25:50;91821.50;;;10.25;100.00
17873;BME280;36318;42.620;23.338;2023-04-01T05:28:17;91812.06;;;10.15;100.00
17873;BME280;36318;42.620;23.338;2023-04-01T05:30:44;91805.28;;;10.23;100.00
17873;BME280;36318;42.620;23.338;2023-04-01T05:33:11;91811.56;;;10.38;100.00
17873;BME280;36318;42.620;23.338;2023-04-01T05:35:38;91811.44;;;10.47;100.00
17873;BME280;36318;42.620;23.338;2023-04-01T05:38:06;91819.47;;;10.62;100.00
17873;BME280;36318;42.620;23.338;2023-04-01T05:40:33;91816.50;;;10.91;100.00
17873;BME280;36318;42.620;23.338;2023-04-01T05:43:00;91816.44;;;11.16;100.00
17873;BME280;36318;42.620;23.338;2023-04-01T05:45:26;91815.16;;;11.36;100.00
17873;BME280;36318;42.620;23.338;2023-04-01T05:47:53;91810.63;;;11.47;100.00
17873;BME280;36318;42.620;23.338;2023-04-01T05:50:19;91806.91;;;11.57;100.00
17873;BME280;36318;42.620;23.338;2023-04-01T05:52:46;91807.63;;;11.75;100.00
17873;BME280;36318;42.620;23.338;2023-04-01T05:55:14;91811.69;;;12.02;100.00
17873;BME280;36318;42.620;23.338;2023-04-01T05:57:41;91805.97;;;12.31;99.18
17873;BME280;36318;42.620;23.338;2023-04-01T06:00:07;91799.75;;;12.56;95.43
17873;BME280;36318;42.620;23.338;2023-04-01T06:02:34;91807.31;;;12.74;93.58
17873;BME280;36318;42.620;23.338;2023-04-01T06:05:03;91801.59;;;12.86;92.84
17873;BME280;36318;42.620;23.338;2023-04-01T06:07:36;91799.50;;;12.74;83.49
17873;BME280;36318;42.620;23.338;2023-04-01T06:10:05;91811.75;;;12.57;85.10
17873;BME280;36318;42.620;23.338;2023-04-01T06:12:40;91809.19;;;12.41;92.13
17873;BME280;36318;42.620;23.338;2023-04-01T06:15:18;91798.63;;;12.50;93.52
17873;BME280;36318;42.620;23.338;2023-04-01T06:17:56;91802.50;;;12.46;87.64
17873;BME280;36318;42.620;23.338;2023-04-01T06:20:29;91812.16;;;12.38;86.66
17873;BME280;36318;42.620;23.338;2023-04-01T06:23:18;91809.34;;;12.47;87.73
17873;BME280;36318;42.620;23.338;2023-04-01T06:25:52;91809.97;;;12.57;80.96
17873;BME280;36318;42.620;23.338;2023-04-01T06:31:25;91811.06;;;12.71;82.20
17873;BME280;36318;42.620;23.338;2023-04-01T06:34:00;91804.97;;;12.48;81.76
17873;BME280;36318;42.620;23.338;2023-04-01T06:36:35;91776.13;;;12.57;87.90
17873;BME280;36318;42.620;23.338;2023-04-01T06:39:17;91777.06;;;12.81;88.05
17873;BME280;36318;42.620;23.338;2023-04-01T06:42:01;91774.19;;;12.98;86.07
17873;BME280;36318;42.620;23.338;2023-04-01T06:44:33;91759.53;;;13.05;78.86
17873;BME280;36318;42.620;23.338;2023-04-01T06:47:07;91767.25;;;12.91;77.32
17873;BME280;36318;42.620;23.338;2023-04-01T06:49:41;91767.00;;;13.00;80.60
17873;BME280;36318;42.620;23.338;2023-04-01T06:52:13;91784.75;;;13.13;80.58
17873;BME280;36318;42.620;23.338;2023-04-01T06:54:44;91782.25;;;13.19;79.09
17873;BME280;36318;42.620;23.338;2023-04-01T06:57:16;91768.50;;;13.34;76.07
17873;BME280;36318;42.620;23.338;2023-04-01T06:59:45;91755.03;;;13.53;76.79
17873;BME280;36318;42.620;23.338;2023-04-01T07:02:18;91758.22;;;13.63;75.41
17873;BME280;36318;42.620;23.338;2023-04-01T07:04:48;91741.06;;;13.68;74.81
17873;BME280;36318;42.620;23.338;2023-04-01T07:07:19;91749.06;;;13.67;74.36
17873;BME280;36318;42.620;23.338;2023-04-01T07:09:48;91744.25;;;13.78;73.70
17873;BME280;36318;42.620;23.338;2023-04-01T07:12:18;91754.84;;;13.77;75.22
17873;BME280;36318;42.620;23.338;2023-04-01T07:14:47;91746.75;;;13.72;73.83
17873;BME280;36318;42.620;23.338;2023-04-01T07:17:17;91747.22;;;13.75;75.67
17873;BME280;36318;42.620;23.338;2023-04-01T07:19:47;91731.22;;;13.78;76.86
17873;BME280;36318;42.620;23.338;2023-04-01T07:22:20;91747.38;;;13.74;74.40
17873;BME280;36318;42.620;23.338;2023-04-01T07:24:48;91742.00;;;13.75;73.97
17873;BME280;36318;42.620;23.338;2023-04-01T07:27:16;91747.66;;;13.79;75.95
17873;BME280;36318;42.620;23.338;2023-04-01T07:29:42;91759.94;;;13.93;76.36
17873;BME280;36318;42.620;23.338;2023-04-01T07:32:18;91758.84;;;13.88;77.56
17873;BME280;36318;42.620;23.338;2023-04-01T07:37:38;91750.44;;;14.15;77.01
17873;BME280;36318;42.620;23.338;2023-04-01T07:40:11;91760.16;;;14.06;74.83
17873;BME280;36318;42.620;23.338;2023-04-01T07:42:44;91753.22;;;13.99;77.18
17873;BME280;36318;42.620;23.338;2023-04-01T07:45:21;91743.44;;;14.15;75.19
17873;BME280;36318;42.620;23.338;2023-04-01T07:47:55;91727.56;;;14.83;72.20
17873;BME280;36318;42.620;23.338;2023-04-01T07:50:27;91750.53;;;15.03;69.85
17873;BME280;36318;42.620;23.338;2023-04-01T07:52:57;91740.16;;;14.94;69.83
17873;BME280;36318;42.620;23.338;2023-04-01T07:55:26;91743.56;;;14.95;71.44
17873;BME280;36318;42.620;23.338;2023-04-01T07:57:57;91749.09;;;15.00;71.73
17873;BME280;36318;42.620;23.338;2023-04-01T08:00:27;91733.44;;;15.21;71.14
17873;BME280;36318;42.620;23.338;2023-04-01T08:03:01;91723.94;;;14.99;70.70
17873;BME280;36318;42.620;23.338;2023-04-01T08:05:32;91725.50;;;14.64;73.55
17873;BME280;36318;42.620;23.338;2023-04-01T08:08:05;91737.91;;;14.48;75.24
17873;BME280;36318;42.620;23.338;2023-04-01T08:10:36;91719.66;;;14.62;74.45
17873;BME280;36318;42.620;23.338;2023-04-01T08:13:07;91705.72;;;14.41;74.11
17873;BME280;36318;42.620;23.338;2023-04-01T08:15:40;91708.84;;;15.16;60.17
17873;BME280;36318;42.620;23.338;2023-04-01T08:18:14;91708.88;;;16.84;60.60
17873;BME280;36318;42.620;23.338;2023-04-01T08:20:44;91702.94;;;18.68;57.81
17873;BME280;36318;42.620;23.338;2023-04-01T08:23:13;91695.44;;;19.80;53.73
17873;BME280;36318;42.620;23.338;2023-04-01T08:25:40;91662.03;;;20.55;53.59
17873;BME280;36318;42.620;23.338;2023-04-01T08:28:13;91657.63;;;19.68;45.20
17873;BME280;36318;42.620;23.338;2023-04-01T08:30:43;91659.88;;;18.76;45.03
17873;BME280;36318;42.620;23.338;2023-04-01T08:33:15;91640.03;;;18.80;45.81
17873;BME280;36318;42.620;23.338;2023-04-01T08:35:44;91631.22;;;19.81;43.65
17873;BME280;36318;42.620;23.338;2023-04-01T08:38:14;91627.13;;;20.59;43.70
17873;BME280;36318;42.620;23.338;2023-04-01T08:40:55;91619.81;;;21.75;40.87
17873;BME280;36318;42.620;23.338;2023-04-01T08:43:25;91598.31;;;22.59;44.41
17873;BME280;36318;42.620;23.338;2023-04-01T08:46:06;91599.78;;;22.44;40.89
17873;BME280;36318;42.620;23.338;2023-04-01T08:48:44;91591.09;;;23.18;38.26
17873;BME280;36318;42.620;23.338;2023-04-01T08:54:10;91631.84;;;23.85;44.34
17873;BME280;36318;42.620;23.338;2023-04-01T08:56:46;91583.78;;;24.43;40.17
17873;BME280;36318;42.620;23.338;2023-04-01T08:59:20;91603.41;;;25.19;41.63
17873;BME280;36318;42.620;23.338;2023-04-01T09:01:58;91598.34;;;25.87;40.79
17873;BME280;36318;42.620;23.338;2023-04-01T09:04:35;91628.25;;;26.58;40.63
17873;BME280;36318;42.620;23.338;2023-04-01T09:07:10;91599.44;;;27.39;39.91
17873;BME280;36318;42.620;23.338;2023-04-01T09:12:37;91599.50;;;24.00;39.87
17873;BME280;36318;42.620;23.338;2023-04-01T09:20:49;91601.50;;;22.15;38.16
17873;BME280;36318;42.620;23.338;2023-04-01T09:23:40;91592.16;;;23.05;38.12
17873;BME280;36318;42.620;23.338;2023-04-01T09:26:15;91590.38;;;22.25;38.94
17873;BME280;36318;42.620;23.338;2023-04-01T09:28:47;91585.34;;;21.82;37.60
17873;BME280;36318;42.620;23.338;2023-04-01T09:31:21;91569.25;;;21.72;42.34
17873;BME280;36318;42.620;23.338;2023-04-01T09:34:00;91581.19;;;22.27;45.52
17873;BME280;36318;42.620;23.338;2023-04-01T09:36:43;91585.75;;;22.55;45.75
17873;BME280;36318;42.620;23.338;2023-04-01T09:41:57;91584.25;;;22.94;45.45
17873;BME280;36318;42.620;23.338;2023-04-01T09:44:29;91577.50;;;22.75;43.37
17873;BME280;36318;42.620;23.338;2023-04-01T09:47:01;91570.97;;;22.19;44.62
17873;BME280;36318;42.620;23.338;2023-04-01T09:49:47;91565.69;;;21.66;45.33
17873;BME280;36318;42.620;23.338;2023-04-01T09:52:25;91557.38;;;22.04;46.37
17873;BME280;36318;42.620;23.338;2023-04-01T09:55:01;91563.56;;;21.98;45.87
17873;BME280;36318;42.620;23.338;2023-04-01T09:57:48;91550.34;;;22.44;44.52
17873;BME280;36318;42.620;23.338;2023-04-01T10:06:16;91544.53;;;23.78;42.78
17873;BME280;36318;42.620;23.338;2023-04-01T10:08:54;91539.41;;;24.05;42.33
17873;BME280;36318;42.620;23.338;2023-04-01T10:11:37;91536.19;;;23.70;42.83
17873;BME280;36318;42.620;23.338;2023-04-01T10:14:19;91540.84;;;23.96;44.12
17873;BME280;36318;42.620;23.338;2023-04-01T10:16:57;91542.44;;;23.80;42.12
17873;BME280;36318;42.620;23.338;2023-04-01T10:19:43;91513.22;;;23.59;41.46
17873;BME280;36318;42.620;23.338;2023-04-01T10:22:21;91520.94;;;22.06;41.46
17873;BME280;36318;42.620;23.338;2023-04-01T10:30:31;91516.31;;;23.11;43.83
17873;BME280;36318;42.620;23.338;2023-04-01T10:33:15;91513.06;;;23.09;44.73
17873;BME280;36318;42.620;23.338;2023-04-01T10:35:57;91505.84;;;23.04;45.99
17873;BME280;36318;42.620;23.338;2023-04-01T10:41:23;91487.53;;;22.75;43.82
17873;BME280;36318;42.620;23.338;2023-04-01T10:49:37;91476.41;;;21.04;42.77
17873;BME280;36318;42.620;23.338;2023-04-01T10:54:56;91477.66;;;21.19;42.03
17873;BME280;36318;42.620;23.338;2023-04-01T10:57:45;91464.22;;;21.21;41.87
17873;BME280;36318;42.620;23.338;2023-04-01T11:00:49;91466.41;;;20.94;41.93
17873;BME280;36318;42.620;23.338;2023-04-01T11:03:31;91463.22;;;21.22;42.88
17873;BME280;36318;42.620;23.338;2023-04-01T11:06:20;91455.47;;;20.31;42.34
17873;BME280;36318;42.620;23.338;2023-04-01T11:23:15;91468.00;;;18.69;46.81
17873;BME280;36318;42.620;23.338;2023-04-01T11:26:02;91472.06;;;18.14;50.87
17873;BME280;36318;42.620;23.338;2023-04-01T11:31:29;91487.53;;;17.71;51.19
17873;BME280;36318;42.620;23.338;2023-04-01T11:34:01;91516.97;;;17.73;51.57
17873;BME280;36318;42.620;23.338;2023-04-01T11:36:34;91519.81;;;17.65;50.26
17873;BME280;36318;42.620;23.338;2023-04-01T11:39:10;91539.81;;;17.40;50.94
17873;BME280;36318;42.620;23.338;2023-04-01T11:41:40;91570.22;;;17.02;55.76
17873;BME280;36318;42.620;23.338;2023-04-01T11:44:12;91608.34;;;16.16;62.23
17873;BME280;36318;42.620;23.338;2023-04-01T11:46:43;91631.06;;;15.39;81.98
17873;BME280;36318;42.620;23.338;2023-04-01T11:49:19;91650.84;;;14.70;100.00
17873;BME280;36318;42.620;23.338;2023-04-01T11:51:52;91654.53;;;14.17;100.00
17873;BME280;36318;42.620;23.338;2023-04-01T11:54:26;91660.41;;;13.67;100.00
17873;BME280;36318;42.620;23.338;2023-04-01T11:57:02;91673.06;;;13.10;100.00
17873;BME280;36318;42.620;23.338;2023-04-01T11:59:44;91675.38;;;12.74;100.00
17873;BME280;36318;42.620;23.338;2023-04-01T12:02:19;91687.91;;;12.32;100.00
17873;BME280;36318;42.620;23.338;2023-04-01T12:07:27;91647.38;;;11.98;100.00
17873;BME280;36318;42.620;23.338;2023-04-01T12:10:05;91646.09;;;11.94;100.00
17873;BME280;36318;42.620;23.338;2023-04-01T12:12:40;91648.81;;;12.09;100.00
17873;BME280;36318;42.620;23.338;2023-04-01T12:15:13;91629.78;;;12.47;100.00
17873;BME280;36318;42.620;23.338;2023-04-01T12:17:44;91631.22;;;13.11;100.00
17873;BME280;36318;42.620;23.338;2023-04-01T12:20:30;91642.38;;;13.43;100.00
17873;BME280;36318;42.620;23.338;2023-04-01T12:23:04;91640.69;;;13.50;100.00
17873;BME280;36318;42.620;23.338;2023-04-01T12:25:38;91642.13;;;13.52;100.00
17873;BME280;36318;42.620;23.338;2023-04-01T12:28:14;91650.81;;;13.45;100.00
17873;BME280;36318;42.620;23.338;2023-04-01T12:30:46;91661.66;;;13.56;100.00
17873;BME280;36318;42.620;23.338;2023-04-01T12:33:29;91630.97;;;14.10;100.00
17873;BME280;36318;42.620;23.338;2023-04-01T12:36:00;91628.88;;;14.50;100.00
17873;BME280;36318;42.620;23.338;2023-04-01T12:38:35;91659.91;;;14.74;100.00
17873;BME280;36318;42.620;23.338;2023-04-01T12:41:09;91663.53;;;14.73;100.00
17873;BME280;36318;42.620;23.338;2023-04-01T12:43:53;91678.13;;;14.53;100.00
17873;BME280;36318;42.620;23.338;2023-04-01T12:46:24;91680.44;;;13.89;100.00
17873;BME280;36318;42.620;23.338;2023-04-01T12:51:46;91656.41;;;12.57;100.00
17873;BME280;36318;42.620;23.338;2023-04-01T12:57:06;91659.63;;;12.29;100.00
17873;BME280;36318;42.620;23.338;2023-04-01T12:59:42;91663.75;;;12.15;100.00
17873;BME280;36318;42.620;23.338;2023-04-01T13:02:19;91663.22;;;12.28;100.00
17873;BME280;36318;42.620;23.338;2023-04-01T13:04:55;91654.09;;;12.63;100.00
17873;BME280;36318;42.620;23.338;2023-04-01T13:07:39;91646.88;;;12.81;100.00
17873;BME280;36318;42.620;23.338;2023-04-01T13:10:14;91666.00;;;12.65;100.00
17873;BME280;36318;42.620;23.338;2023-04-01T13:13:00;91665.84;;;12.20;100.00
17873;BME280;36318;42.620;23.338;2023-04-01T13:15:36;91626.28;;;11.93;100.00
17873;BME280;36318;42.620;23.338;2023-04-01T13:18:07;91579.00;;;12.29;100.00
17873;BME280;36318;42.620;23.338;2023-04-01T13:20:43;91577.00;;;12.84;100.00
17873;BME280;36318;42.620;23.338;2023-04-01T13:23:13;91585.78;;;13.66;100.00
17873;BME280;36318;42.620;23.338;2023-04-01T13:25:44;91591.72;;;14.18;100.00
17873;BME280;36318;42.620;23.338;2023-04-01T13:28:17;91581.50;;;14.67;100.00
17873;BME280;36318;42.620;23.338;2023-04-01T13:30:47;91592.97;;;15.30;100.00
17873;BME280;36318;42.620;23.338;2023-04-01T13:33:17;91572.47;;;15.82;100.00
17873;BME280;36318;42.620;23.338;2023-04-01T13:35:53;91587.88;;;15.71;100.00
17873;BME280;36318;42.620;23.338;2023-04-01T13:38:32;91600.78;;;16.00;100.00
17873;BME280;36318;42.620;23.338;2023-04-01T13:41:06;91589.69;;;15.98;100.00
17873;BME280;36318;42.620;23.338;2023-04-01T13:43:39;91579.78;;;15.59;100.00
17873;BME280;36318;42.620;23.338;2023-04-01T13:46:12;91596.13;;;15.68;100.00
17873;BME280;36318;42.620;23.338;2023-04-01T13:48:49;91589.84;;;15.90;100.00
17873;BME280;36318;42.620;23.338;2023-04-01T13:51:21;91567.75;;;15.43;100.00
17873;BME280;36318;42.620;23.338;2023-04-01T13:53:54;91586.69;;;15.45;100.00
17873;BME280;36318;42.620;23.338;2023-04-01T13:56:24;91572.53;;;15.89;97.18
17873;BME280;36318;42.620;23.338;2023-04-01T13:59:00;91528.75;;;16.10;82.65
17873;BME280;36318;42.620;23.338;2023-04-01T14:01:32;91555.09;;;16.43;84.25
17873;BME280;36318;42.620;23.338;2023-04-01T14:04:20;91543.41;;;17.00;80.98
17873;BME280;36318;42.620;23.338;2023-04-01T14:06:57;91545.16;;;16.80;96.09
17873;BME280;36318;42.620;23.338;2023-04-01T14:12:13;91544.50;;;15.48;72.09
17873;BME280;36318;42.620;23.338;2023-04-01T14:14:51;91540.66;;;15.02;71.44
17873;BME280;36318;42.620;23.338;2023-04-01T14:17:35;91542.63;;;14.79;76.62
17873;BME280;36318;42.620;23.338;2023-04-01T14:20:22;91539.03;;;14.59;77.89
17873;BME280;36318;42.620;23.338;2023-04-01T14:22:56;91538.41;;;14.57;72.91
17873;BME280;36318;42.620;23.338;2023-04-01T14:25:39;91514.00;;;14.50;74.66